Time;durP1;ratioP1;P1;durP2;ratioP2;P2;SDS_P1;SDS_P2;PMS_P1;PMS_P2;Temp;Humidity;BMP_temperature;BMP_pressure;BME280_temperature;BME280_humidity;BME280_pressure;Samples;Min_cycle;Max_cycle;Signal;HPM_P1;HPM_P2
2023/01/02 00:01:02;;;;;;;3.07;1.13;;;14.70;36.30;;;;;;4992737;28;20209;-75
2023/01/02 00:03:28;;;;;;;3.20;1.20;;;14.70;36.20;;;;;;4993283;28;20192;-75
2023/01/02 00:05:54;;;;;;;3.20;1.30;;;14.70;36.70;;;;;;4977225;28;20444;-74
2023/01/02 00:08:20;;;;;;;3.20;1.30;;;14.40;36.40;;;;;;4996161;28;20417;-74
2023/01/02 00:10:45;;;;;;;3.00;1.10;;;14.30;37.10;;;;;;4993802;28;20210;-74
2023/01/02 00:13:11;;;;;;;3.03;1.10;;;14.20;36.60;;;;;;4990148;28;20301;-74
2023/01/02 00:15:37;;;;;;;4.63;1.67;;;13.70;38.30;;;;;;4991353;28;20187;-74
2023/01/02 00:18:02;;;;;;;3.20;1.20;;;12.80;40.80;;;;;;4995424;28;20633;-74
2023/01/02 00:20:28;;;;;;;7.17;1.70;;;13.10;40.30;;;;;;4994852;28;20213;-74
2023/01/02 00:22:54;;;;;;;3.13;1.20;;;13.50;39.40;;;;;;5000475;28;20194;-75
2023/01/02 00:25:19;;;;;;;3.27;1.30;;;13.70;38.90;;;;;;5002362;28;20317;-75
2023/01/02 00:27:45;;;;;;;3.10;1.20;;;13.70;38.90;;;;;;5001365;28;20182;-74
2023/01/02 00:30:11;;;;;;;4.37;2.03;;;13.40;39.10;;;;;;4976231;28;20204;-74
2023/01/02 00:32:36;;;;;;;3.07;1.20;;;13.60;38.80;;;;;;4995015;28;20215;-74
2023/01/02 00:35:02;;;;;;;3.30;1.40;;;13.60;38.50;;;;;;4994042;28;20520;-74
2023/01/02 00:37:28;;;;;;;4.20;2.00;;;13.20;39.50;;;;;;4973850;28;20182;-74
2023/01/02 00:39:53;;;;;;;3.90;1.80;;;13.10;39.80;;;;;;4992509;28;20312;-74
2023/01/02 00:42:19;;;;;;;4.00;1.83;;;13.10;40.00;;;;;;4994395;28;20241;-74
2023/01/02 00:44:45;;;;;;;3.53;1.53;;;13.30;39.10;;;;;;4994091;28;20186;-74
2023/01/02 00:47:10;;;;;;;3.97;1.77;;;13.30;39.00;;;;;;4992594;28;20197;-74
2023/01/02 00:49:36;;;;;;;3.40;1.50;;;13.60;39.30;;;;;;4987572;28;20256;-74
2023/01/02 00:52:02;;;;;;;3.30;1.37;;;13.40;38.90;;;;;;4988797;28;20209;-74
2023/01/02 00:54:27;;;;;;;3.00;1.10;;;13.20;39.30;;;;;;4992089;28;20193;-74
2023/01/02 00:56:53;;;;;;;4.20;1.83;;;13.20;39.40;;;;;;4995257;28;20194;-74
2023/01/02 00:59:18;;;;;;;4.13;1.60;;;12.90;39.20;;;;;;5003147;28;20201;-74
2023/01/02 01:01:44;;;;;;;3.20;1.30;;;11.10;45.60;;;;;;5012903;28;20258;-74
2023/01/02 01:04:09;;;;;;;3.10;1.30;;;10.50;49.00;;;;;;5012546;28;20166;-74
2023/01/02 01:06:35;;;;;;;3.20;1.30;;;10.50;49.80;;;;;;5015173;28;20182;-74
2023/01/02 01:09:01;;;;;;;3.40;1.37;;;11.40;47.60;;;;;;5013451;28;20253;-74
2023/01/02 01:11:27;;;;;;;3.30;1.40;;;12.10;43.90;;;;;;5014043;28;20229;-74
2023/01/02 01:13:53;;;;;;;3.67;1.50;;;12.30;42.60;;;;;;5012377;28;20429;-74
2023/01/02 01:16:19;;;;;;;3.40;1.50;;;12.20;42.50;;;;;;5002694;28;20444;-75
2023/01/02 01:18:46;;;;;;;3.10;1.30;;;12.30;42.20;;;;;;5002056;28;20208;-74
2023/01/02 01:21:15;;;;;;;3.20;1.33;;;12.70;41.40;;;;;;4992499;28;20472;-74
2023/01/02 01:23:41;;;;;;;4.03;1.37;;;12.70;41.00;;;;;;4989592;28;20430;-74
2023/01/02 01:26:09;;;;;;;3.10;1.17;;;13.00;41.10;;;;;;4991910;28;20423;-74
2023/01/02 01:28:34;;;;;;;3.00;1.10;;;13.00;40.00;;;;;;4994214;28;20417;-74
2023/01/02 01:31:05;;;;;;;3.87;1.87;;;12.90;40.40;;;;;;4991486;28;20455;-74
2023/01/02 01:33:32;;;;;;;3.27;1.40;;;12.90;40.40;;;;;;4994805;28;20488;-74
2023/01/02 01:36:02;;;;;;;3.30;1.50;;;13.00;39.60;;;;;;4992222;28;20457;-74
2023/01/02 01:38:28;;;;;;;3.00;1.20;;;13.30;39.70;;;;;;4989863;28;20480;-74
2023/01/02 01:40:54;;;;;;;3.00;1.10;;;13.00;39.50;;;;;;4992496;28;20496;-74
2023/01/02 01:43:48;;;;;;;3.20;1.50;;;13.50;39.30;;;;;;4992541;28;20456;-74
2023/01/02 01:46:34;;;;;;;3.03;1.20;;;13.30;39.40;;;;;;4993772;28;20188;-75
2023/01/02 01:49:20;;;;;;;3.00;1.10;;;13.40;38.60;;;;;;4990213;28;20428;-74
2023/01/02 01:51:55;;;;;;;3.10;1.30;;;13.30;38.80;;;;;;4973318;28;20480;-74
2023/01/02 01:54:48;;;;;;;3.20;1.30;;;13.80;38.80;;;;;;4970626;28;20437;-74
2023/01/02 01:57:23;;;;;;;3.00;1.10;;;13.60;38.50;;;;;;4992967;28;20421;-74
2023/01/02 01:59:49;;;;;;;3.00;1.10;;;13.70;38.40;;;;;;4988676;28;21297;-74
2023/01/02 02:02:15;;;;;;;3.10;1.10;;;13.50;38.30;;;;;;4993422;28;20519;-74
2023/01/02 02:04:44;;;;;;;4.13;1.40;;;13.70;38.40;;;;;;4990315;28;20429;-75
2023/01/02 02:07:10;;;;;;;3.00;1.10;;;13.90;37.70;;;;;;4988062;28;20437;-74
2023/01/02 02:09:48;;;;;;;3.17;1.30;;;13.80;37.80;;;;;;4990543;28;20433;-77
2023/01/02 02:12:16;;;;;;;3.10;1.20;;;14.00;37.60;;;;;;4991761;28;20464;-76
2023/01/02 02:14:41;;;;;;;3.30;1.30;;;13.70;37.30;;;;;;4993334;28;20487;-74
2023/01/02 02:17:23;;;;;;;3.00;1.10;;;13.40;38.60;;;;;;4991214;28;20469;-78
2023/01/02 02:20:00;;;;;;;3.73;1.43;;;13.50;37.90;;;;;;4987045;28;20186;-74
2023/01/02 02:22:59;;;;;;;3.07;1.20;;;13.60;37.40;;;;;;4991459;28;20461;-73
2023/01/02 02:25:40;;;;;;;3.00;1.20;;;13.50;37.80;;;;;;4991933;28;20437;-74
2023/01/02 02:28:15;;;;;;;6.33;2.50;;;13.20;38.60;;;;;;4990962;28;20444;-74
2023/01/02 02:31:04;;;;;;;3.00;1.17;;;13.50;38.20;;;;;;4983109;28;20475;-73
2023/01/02 02:33:56;;;;;;;3.10;1.20;;;13.10;38.70;;;;;;4992757;28;20461;-74
2023/01/02 02:36:39;;;;;;;3.07;1.20;;;13.40;38.00;;;;;;4990655;28;20523;-74
2023/01/02 02:39:33;;;;;;;3.00;1.10;;;13.40;38.10;;;;;;4988119;28;20507;-74
2023/01/02 02:42:18;;;;;;;3.00;1.10;;;13.20;39.00;;;;;;4990753;28;20472;-75
2023/01/02 02:45:13;;;;;;;2.90;1.10;;;13.30;38.40;;;;;;4991257;28;20437;-74
2023/01/02 02:47:47;;;;;;;3.00;1.20;;;13.10;39.10;;;;;;4986031;28;20791;-73
2023/01/02 02:50:19;;;;;;;3.00;1.10;;;13.00;39.30;;;;;;4990268;28;20849;-73
2023/01/02 02:52:51;;;;;;;3.00;1.20;;;12.90;39.90;;;;;;4986111;28;20506;-73
2023/01/02 02:55:59;;;;;;;4.07;1.73;;;12.90;39.70;;;;;;4988452;28;20912;-73
2023/01/02 02:58:26;;;;;;;3.00;1.10;;;12.60;40.60;;;;;;4915680;29;21035;-74
2023/01/02 03:01:14;;;;;;;2.97;1.10;;;12.90;40.60;;;;;;4914176;29;20851;-73
2023/01/02 03:03:40;;;;;;;3.03;1.20;;;12.80;40.00;;;;;;4911653;29;20452;-73
2023/01/02 03:06:43;;;;;;;4.80;2.00;;;12.40;41.20;;;;;;4910166;29;20470;-73
2023/01/02 03:09:21;;;;;;;3.07;1.20;;;12.40;41.40;;;;;;4911201;29;20519;-74
2023/01/02 03:12:13;;;;;;;3.20;1.40;;;13.10;39.80;;;;;;4918310;29;20476;-75
2023/01/02 03:14:57;;;;;;;3.00;1.20;;;13.00;39.80;;;;;;4911092;29;20820;-74
2023/01/02 03:17:45;;;;;;;2.90;1.10;;;13.00;39.70;;;;;;4918928;29;20448;-74
2023/01/02 03:20:13;;;;;;;3.00;1.10;;;12.60;40.80;;;;;;4913877;29;20591;-73
2023/01/02 03:22:45;;;;;;;3.10;1.33;;;12.50;40.80;;;;;;4913614;29;20595;-75
2023/01/02 03:25:12;;;;;;;4.43;1.70;;;11.80;43.20;;;;;;4913009;29;20459;-73
2023/01/02 03:27:43;;;;;;;3.00;1.20;;;11.80;43.10;;;;;;4918494;29;20555;-78
2023/01/02 03:30:20;;;;;;;3.30;1.40;;;12.20;42.20;;;;;;4979129;28;20445;-73
2023/01/02 03:33:17;;;;;;;2.90;1.10;;;12.50;41.10;;;;;;4988331;28;20461;-73
2023/01/02 03:35:54;;;;;;;3.00;1.20;;;12.60;40.70;;;;;;4988254;28;20451;-73
2023/01/02 03:38:27;;;;;;;3.20;1.60;;;12.50;40.90;;;;;;4992116;28;20405;-73
2023/01/02 03:41:20;;;;;;;13.03;1.83;;;12.80;41.10;;;;;;4991886;28;20472;-74
2023/01/02 03:43:50;;;;;;;3.10;1.30;;;12.50;40.80;;;;;;4989327;28;20437;-77
2023/01/02 03:46:37;;;;;;;3.00;1.27;;;12.70;40.50;;;;;;4985025;28;20493;-73
2023/01/02 03:49:09;;;;;;;3.30;1.37;;;12.70;40.70;;;;;;4992145;28;20432;-76
2023/01/02 03:51:35;;;;;;;3.10;1.40;;;12.50;41.40;;;;;;4990411;28;20469;-74
2023/01/02 03:54:03;;;;;;;2.87;1.10;;;12.40;41.10;;;;;;4988205;28;20440;-75
2023/01/02 03:56:31;;;;;;;3.00;1.30;;;12.60;40.60;;;;;;4991179;28;20214;-73
2023/01/02 03:58:59;;;;;;;2.80;1.10;;;12.70;40.00;;;;;;4992096;28;20947;-75
2023/01/02 04:01:32;;;;;;;2.88;1.17;;;12.70;40.40;;;;;;4990944;28;20506;-75
2023/01/02 04:04:50;;;;;;;2.83;1.17;;;12.90;39.90;;;;;;4990328;28;20188;-73
2023/01/02 04:07:31;;;;;;;2.90;1.10;;;12.90;39.80;;;;;;4930229;29;20443;-74
2023/01/02 04:09:59;;;;;;;2.80;1.10;;;12.90;39.80;;;;;;4923485;29;20691;-75
2023/01/02 04:12:27;;;;;;;4.07;1.70;;;13.00;40.60;;;;;;4930569;29;20727;-74
2023/01/02 04:14:59;;;;;;;2.83;1.10;;;13.30;40.10;;;;;;4930551;29;20443;-73
2023/01/02 04:17:27;;;;;;;2.80;1.10;;;13.00;40.60;;;;;;4928533;29;20443;-73
2023/01/02 04:19:57;;;;;;;2.80;1.13;;;12.80;39.80;;;;;;4930609;29;20435;-74
2023/01/02 04:22:33;;;;;;;3.00;1.30;;;13.00;39.30;;;;;;4914372;29;20467;-73
2023/01/02 04:25:16;;;;;;;3.20;1.40;;;12.90;39.60;;;;;;4926166;29;20430;-73
2023/01/02 04:28:04;;;;;;;2.80;1.20;;;13.50;38.70;;;;;;4931198;29;20523;-78
2023/01/02 04:30:33;;;;;;;2.93;1.30;;;13.60;38.70;;;;;;4929591;29;20546;-74
2023/01/02 04:33:08;;;;;;;3.27;1.27;;;13.60;39.10;;;;;;4930661;29;20538;-73
2023/01/02 04:35:34;;;;;;;3.00;1.20;;;13.30;38.60;;;;;;4934151;29;20495;-75
2023/01/02 04:38:08;;;;;;;2.90;1.20;;;13.20;38.90;;;;;;4934765;29;20439;-75
2023/01/02 04:40:36;;;;;;;3.00;1.27;;;13.80;38.30;;;;;;4928004;29;20553;-73
2023/01/02 04:43:06;;;;;;;2.90;1.10;;;13.40;38.40;;;;;;4959434;28;20949;-74
2023/01/02 04:45:31;;;;;;;2.90;1.10;;;13.40;38.40;;;;;;4992875;28;20488;-73
2023/01/02 04:47:57;;;;;;;2.90;1.20;;;13.00;37.60;;;;;;4975855;28;20963;-73
2023/01/02 04:50:22;;;;;;;2.90;1.00;;;13.80;38.70;;;;;;4994846;28;20181;-74
2023/01/02 04:52:48;;;;;;;3.00;1.20;;;13.50;38.10;;;;;;4994049;28;20202;-75
2023/01/02 04:55:13;;;;;;;3.00;1.20;;;13.30;38.60;;;;;;4993730;28;20568;-73
2023/01/02 04:57:39;;;;;;;3.10;1.30;;;13.20;39.10;;;;;;4993121;28;20175;-75
2023/01/02 05:00:07;;;;;;;2.90;1.10;;;13.10;39.40;;;;;;4994003;28;20193;-74
2023/01/02 05:02:37;;;;;;;3.00;1.20;;;12.70;40.00;;;;;;4994076;28;20207;-73
2023/01/02 05:05:04;;;;;;;3.30;1.60;;;12.60;40.40;;;;;;4990624;28;20443;-74
2023/01/02 05:07:32;;;;;;;2.90;1.10;;;12.50;40.70;;;;;;4991657;28;20540;-74
2023/01/02 05:09:57;;;;;;;2.93;1.20;;;12.30;41.00;;;;;;4993870;28;20882;-74
2023/01/02 05:12:23;;;;;;;3.03;1.30;;;12.50;40.40;;;;;;4994278;28;20552;-73
2023/01/02 05:14:49;;;;;;;3.40;1.40;;;12.60;40.70;;;;;;4992898;28;20186;-74
2023/01/02 05:17:14;;;;;;;2.80;1.10;;;12.40;40.40;;;;;;4991468;28;20194;-73
2023/01/02 05:19:40;;;;;;;2.80;1.10;;;12.60;40.20;;;;;;4992077;28;20716;-73
2023/01/02 05:24:50;;;;;;;2.80;1.10;;;12.40;40.60;;;;;;4992624;28;20320;-73
2023/01/02 05:27:15;;;;;;;3.77;1.60;;;12.30;41.20;;;;;;4992028;28;20481;-77
2023/01/02 05:29:41;;;;;;;2.70;1.00;;;12.40;40.80;;;;;;4976618;28;20277;-75
2023/01/02 05:32:06;;;;;;;2.80;1.20;;;13.00;40.50;;;;;;4993858;28;20245;-73
2023/01/02 05:34:32;;;;;;;2.80;1.10;;;13.00;40.30;;;;;;4993752;28;20181;-73
2023/01/02 05:36:58;;;;;;;2.70;1.10;;;13.00;40.30;;;;;;4990792;28;20189;-74
2023/01/02 05:39:23;;;;;;;2.80;1.20;;;13.10;40.30;;;;;;4988595;28;20194;-75
2023/01/02 05:41:49;;;;;;;2.80;1.10;;;13.10;40.20;;;;;;4982027;28;20210;-73
2023/01/02 05:44:14;;;;;;;2.87;1.20;;;13.30;39.90;;;;;;4993912;28;20654;-74
2023/01/02 05:46:40;;;;;;;2.83;1.10;;;13.50;39.20;;;;;;4991130;28;20178;-73
2023/01/02 05:49:07;;;;;;;2.70;1.10;;;13.00;39.00;;;;;;4991834;28;20190;-74
2023/01/02 05:51:33;;;;;;;2.90;1.30;;;13.10;39.00;;;;;;4977478;28;20231;-73
2023/01/02 05:53:59;;;;;;;2.93;1.17;;;13.40;38.10;;;;;;4995258;28;20531;-74
2023/01/02 05:56:26;;;;;;;2.90;1.20;;;13.50;37.80;;;;;;4994290;28;20557;-74
2023/01/02 05:58:52;;;;;;;2.90;1.20;;;13.10;39.00;;;;;;4991187;28;20472;-74
2023/01/02 06:01:20;;;;;;;3.10;1.37;;;12.90;39.70;;;;;;4974129;28;20574;-75
2023/01/02 06:03:49;;;;;;;2.73;1.03;;;12.90;40.00;;;;;;4992576;28;20193;-74
2023/01/02 06:06:15;;;;;;;2.80;1.10;;;13.00;39.10;;;;;;4975511;28;20963;-74
2023/01/02 06:08:41;;;;;;;3.07;1.33;;;13.30;39.20;;;;;;4975978;28;20437;-74
2023/01/02 06:11:07;;;;;;;2.83;1.10;;;12.70;39.80;;;;;;4991927;28;20453;-72
2023/01/02 06:13:34;;;;;;;4.23;1.90;;;12.70;39.80;;;;;;4984381;28;20221;-76
2023/01/02 06:16:01;;;;;;;2.87;1.20;;;12.80;39.40;;;;;;4999802;28;20413;-82
2023/01/02 06:18:28;;;;;;;2.80;1.20;;;12.80;39.90;;;;;;5001486;28;20427;-82
2023/01/02 06:21:09;;;;;;;2.75;1.00;;;12.80;39.10;;;;;;5000384;28;20457;-81
2023/01/02 06:23:36;;;;;;;2.80;1.20;;;12.70;39.70;;;;;;4983912;28;20674;-81
2023/01/02 06:26:07;;;;;;;2.80;1.20;;;12.70;40.30;;;;;;4984071;28;21079;-79
2023/01/02 06:28:33;;;;;;;2.70;1.10;;;12.50;40.20;;;;;;4975958;28;20653;-80
2023/01/02 06:31:00;;;;;;;2.70;1.10;;;12.70;39.40;;;;;;4982104;28;20210;-81
2023/01/02 06:33:27;;;;;;;2.73;1.10;;;12.60;39.90;;;;;;4996776;28;20472;-79
2023/01/02 06:35:58;;;;;;;2.70;1.10;;;12.90;39.40;;;;;;5003233;28;20425;-80
2023/01/02 06:38:23;;;;;;;2.80;1.20;;;12.60;39.50;;;;;;5001965;28;20428;-79
2023/01/02 06:40:54;;;;;;;2.70;1.10;;;12.70;39.40;;;;;;4979417;28;20448;-74
2023/01/02 06:43:20;;;;;;;2.70;1.10;;;12.70;40.00;;;;;;4992722;28;20200;-74
2023/01/02 06:45:45;;;;;;;2.70;1.13;;;12.80;39.30;;;;;;4991522;28;20495;-74
2023/01/02 06:48:11;;;;;;;2.70;1.10;;;13.10;38.00;;;;;;4973746;28;20441;-76
2023/01/02 06:50:36;;;;;;;2.90;1.20;;;13.50;38.20;;;;;;4992358;28;20197;-74
2023/01/02 06:53:02;;;;;;;2.87;1.20;;;13.30;37.60;;;;;;4992657;28;20202;-74
2023/01/02 06:55:28;;;;;;;2.70;1.10;;;13.50;36.60;;;;;;4993641;28;20187;-75
2023/01/02 06:57:53;;;;;;;2.67;1.00;;;13.80;36.60;;;;;;4989488;28;20186;-77
2023/01/02 07:00:19;;;;;;;2.80;1.20;;;13.40;38.90;;;;;;4991030;28;20313;-74
2023/01/02 07:02:45;;;;;;;2.70;1.10;;;13.30;37.40;;;;;;4992680;28;20259;-74
2023/01/02 07:05:11;;;;;;;2.97;1.30;;;13.10;38.00;;;;;;4992332;28;20188;-74
2023/01/02 07:07:37;;;;;;;2.80;1.10;;;13.10;37.90;;;;;;4992260;28;20567;-74
2023/01/02 07:10:03;;;;;;;2.77;1.10;;;13.30;37.10;;;;;;4988388;28;20524;-74
2023/01/02 07:12:29;;;;;;;2.80;1.10;;;13.30;37.20;;;;;;4988240;28;20210;-74
2023/01/02 07:14:55;;;;;;;2.90;1.20;;;13.40;38.90;;;;;;5002073;28;20413;-74
2023/01/02 07:17:20;;;;;;;2.80;1.10;;;12.80;39.20;;;;;;5001634;28;20182;-74
2023/01/02 07:19:46;;;;;;;2.83;1.20;;;12.90;40.20;;;;;;4988132;28;20248;-74
2023/01/02 07:22:11;;;;;;;2.80;1.20;;;12.80;39.40;;;;;;4994561;28;20243;-74
2023/01/02 07:24:37;;;;;;;2.90;1.30;;;13.00;38.80;;;;;;4999152;28;20240;-74
2023/01/02 07:27:03;;;;;;;2.90;1.30;;;12.90;38.70;;;;;;4994412;28;20186;-74
2023/01/02 07:29:29;;;;;;;4.73;2.20;;;12.80;39.50;;;;;;4987230;28;20445;-74
2023/01/02 07:31:54;;;;;;;2.70;1.10;;;12.70;39.30;;;;;;4986232;28;20214;-74
2023/01/02 07:34:20;;;;;;;4.03;1.53;;;12.60;39.60;;;;;;4990202;28;20268;-74
2023/01/02 07:36:45;;;;;;;2.70;1.10;;;12.40;40.00;;;;;;4991779;28;20174;-74
2023/01/02 07:39:11;;;;;;;2.73;1.10;;;12.40;40.10;;;;;;4987465;28;20217;-74
2023/01/02 07:41:36;;;;;;;2.90;1.37;;;12.60;39.30;;;;;;4986569;28;20217;-74
2023/01/02 07:44:02;;;;;;;2.70;1.10;;;12.70;39.50;;;;;;4985032;28;20244;-74
2023/01/02 07:46:28;;;;;;;2.60;1.00;;;12.80;39.10;;;;;;4985255;28;20200;-74
2023/01/02 07:48:53;;;;;;;4.83;2.23;;;12.80;39.70;;;;;;4982355;28;20550;-74
2023/01/02 07:51:19;;;;;;;2.80;1.27;;;12.60;40.00;;;;;;4989364;28;20220;-74
2023/01/02 07:53:44;;;;;;;2.80;1.20;;;13.00;40.30;;;;;;4987910;28;20326;-74
2023/01/02 07:56:10;;;;;;;2.63;1.10;;;13.10;40.50;;;;;;4986695;28;20257;-74
2023/01/02 07:58:36;;;;;;;2.87;1.23;;;13.00;38.90;;;;;;4985408;28;20182;-74
2023/01/02 08:01:07;;;;;;;2.90;1.20;;;13.00;40.40;;;;;;4987510;28;20209;-74
2023/01/02 08:03:33;;;;;;;2.80;1.23;;;12.70;40.10;;;;;;4986277;28;20444;-75
2023/01/02 08:06:13;;;;;;;3.40;1.63;;;12.60;40.80;;;;;;4993066;28;20459;-75
2023/01/02 08:08:39;;;;;;;2.70;1.10;;;13.10;40.90;;;;;;4988802;28;20464;-74
2023/01/02 08:11:13;;;;;;;2.80;1.27;;;12.90;40.40;;;;;;5031786;22;20969;-77
2023/01/02 08:13:39;;;;;;;2.80;1.10;;;12.80;40.00;;;;;;5016914;28;20472;-77
2023/01/02 08:16:11;;;;;;;2.80;1.20;;;13.10;39.80;;;;;;5011073;28;20574;-76
2023/01/02 08:18:36;;;;;;;2.80;1.10;;;13.40;38.50;;;;;;5014674;28;20181;-77
2023/01/02 08:21:02;;;;;;;3.43;1.60;;;13.30;39.30;;;;;;5013147;28;20448;-76
2023/01/02 08:23:28;;;;;;;3.03;1.40;;;13.20;39.40;;;;;;5013571;28;20196;-77
2023/01/02 08:26:01;;;;;;;2.87;1.20;;;13.60;39.80;;;;;;5010595;28;20523;-78
2023/01/02 08:28:27;;;;;;;2.93;1.30;;;13.10;39.90;;;;;;5012763;28;20194;-76
2023/01/02 08:30:53;;;;;;;3.00;1.20;;;13.00;40.10;;;;;;5013883;28;20535;-75
2023/01/02 08:33:19;;;;;;;2.90;1.20;;;12.90;40.50;;;;;;5012023;28;21045;-76
2023/01/02 08:35:44;;;;;;;3.00;1.20;;;12.90;40.80;;;;;;5010780;28;20205;-73
2023/01/02 08:38:10;;;;;;;2.90;1.20;;;13.00;40.80;;;;;;5012161;28;20537;-73
2023/01/02 08:40:36;;;;;;;3.00;1.20;;;13.10;40.30;;;;;;5011135;28;20232;-73
2023/01/02 08:43:01;;;;;;;3.00;1.20;;;13.10;40.60;;;;;;5012737;28;20734;-72
2023/01/02 08:45:27;;;;;;;3.10;1.33;;;13.30;40.20;;;;;;5007864;28;20183;-72
2023/01/02 08:47:52;;;;;;;3.77;1.60;;;13.30;40.90;;;;;;5004729;28;20572;-73
2023/01/02 08:50:18;;;;;;;3.20;1.40;;;13.80;38.90;;;;;;5010374;28;20212;-73
2023/01/02 08:52:44;;;;;;;3.00;1.20;;;14.10;39.00;;;;;;5013771;28;20288;-73
2023/01/02 08:55:09;;;;;;;3.10;1.30;;;13.60;39.60;;;;;;5014033;28;20545;-73
2023/01/02 08:57:35;;;;;;;2.90;1.10;;;14.10;39.50;;;;;;5011778;28;20181;-73
2023/01/02 09:00:02;;;;;;;3.00;1.20;;;14.00;39.40;;;;;;5014129;28;20725;-73
2023/01/02 09:02:28;;;;;;;3.10;1.30;;;13.80;39.40;;;;;;5014514;28;20260;-73
2023/01/02 09:04:53;;;;;;;2.97;1.13;;;13.80;39.10;;;;;;5014123;28;20498;-73
2023/01/02 09:07:19;;;;;;;3.10;1.27;;;13.80;39.40;;;;;;5011960;28;20189;-73
2023/01/02 09:09:44;;;;;;;3.20;1.40;;;13.80;39.30;;;;;;5013250;28;20582;-73
2023/01/02 09:12:10;;;;;;;5.33;1.73;;;14.10;37.40;;;;;;5013930;28;20197;-73
2023/01/02 09:14:36;;;;;;;3.00;1.20;;;14.30;38.80;;;;;;5013567;28;20523;-73
2023/01/02 09:17:02;;;;;;;3.40;1.50;;;13.60;39.70;;;;;;5013598;28;20243;-73
2023/01/02 09:19:28;;;;;;;3.33;1.47;;;13.70;38.80;;;;;;5011957;28;20259;-73
2023/01/02 09:21:54;;;;;;;3.00;1.20;;;13.50;40.10;;;;;;5014098;28;20180;-73
2023/01/02 09:24:19;;;;;;;3.10;1.30;;;13.70;39.80;;;;;;5013928;28;20414;-73
2023/01/02 09:26:45;;;;;;;3.30;1.57;;;14.00;38.00;;;;;;5013787;28;20715;-73
2023/01/02 09:29:11;;;;;;;4.33;1.87;;;14.10;38.00;;;;;;5011902;28;20587;-73
2023/01/02 09:31:38;;;;;;;3.50;1.60;;;12.60;41.50;;;;;;5012758;28;20166;-72
2023/01/02 09:34:03;;;;;;;3.10;1.30;;;11.90;44.80;;;;;;5012977;28;20985;-72
2023/01/02 09:36:30;;;;;;;3.20;1.30;;;11.30;47.00;;;;;;5013484;28;20404;-72
2023/01/02 09:38:58;;;;;;;3.73;1.47;;;11.80;46.90;;;;;;5013227;28;20166;-73
2023/01/02 09:41:37;;;;;;;5.27;1.73;;;12.60;44.40;;;;;;5012713;28;21070;-73
2023/01/02 09:44:14;;;;;;;3.13;1.30;;;13.00;42.80;;;;;;5017925;28;20420;-73
2023/01/02 09:46:55;;;;;;;3.20;1.40;;;13.50;41.40;;;;;;5013888;28;20819;-73
2023/01/02 09:49:27;;;;;;;3.30;1.40;;;13.70;41.00;;;;;;5013558;28;20425;-73
2023/01/02 09:51:53;;;;;;;3.83;1.50;;;13.90;40.30;;;;;;5011469;28;20443;-73
2023/01/02 09:54:26;;;;;;;3.10;1.40;;;14.10;40.20;;;;;;5013272;28;20412;-73
2023/01/02 09:57:02;;;;;;;3.20;1.50;;;13.90;40.30;;;;;;5013095;28;20165;-73
2023/01/02 09:59:36;;;;;;;3.10;1.20;;;13.20;41.00;;;;;;5013111;28;20438;-73
2023/01/02 10:02:05;;;;;;;3.10;1.30;;;12.40;44.10;;;;;;5009945;28;20470;-73
2023/01/02 10:05:03;;;;;;;3.07;1.30;;;13.10;43.10;;;;;;5007139;28;20906;-73
2023/01/02 10:07:45;;;;;;;3.87;1.70;;;13.90;41.10;;;;;;5005162;28;20405;-73
2023/01/02 10:10:21;;;;;;;3.10;1.27;;;14.10;41.30;;;;;;5012628;28;20442;-73
2023/01/02 10:13:03;;;;;;;3.53;1.40;;;14.30;41.00;;;;;;5011318;28;20555;-73
2023/01/02 10:15:30;;;;;;;3.13;1.33;;;14.50;40.60;;;;;;4994513;28;20452;-73
2023/01/02 10:18:02;;;;;;;3.70;1.80;;;14.70;40.30;;;;;;4993215;28;20957;-73
2023/01/02 10:20:35;;;;;;;3.70;1.70;;;15.10;37.10;;;;;;4993373;28;20427;-73
2023/01/02 10:23:19;;;;;;;3.50;1.70;;;15.40;36.00;;;;;;5003274;28;20439;-73
2023/01/02 10:25:56;;;;;;;3.13;1.30;;;15.50;35.50;;;;;;5010544;28;20420;-73
2023/01/02 10:28:45;;;;;;;4.30;1.80;;;15.20;35.70;;;;;;5025415;28;20509;-73
2023/01/02 10:31:22;;;;;;;3.30;1.40;;;14.70;37.00;;;;;;5012508;28;20443;-73
2023/01/02 10:33:48;;;;;;;4.63;1.80;;;14.70;37.40;;;;;;5010211;28;20463;-73
2023/01/02 10:36:23;;;;;;;3.07;1.27;;;12.70;39.10;;;;;;5012559;28;20849;-73
2023/01/02 10:38:49;;;;;;;3.40;1.53;;;13.70;40.80;;;;;;5012658;28;20644;-73
2023/01/02 10:41:16;;;;;;;3.10;1.40;;;13.70;41.30;;;;;;5012050;28;20459;-73
2023/01/02 10:43:42;;;;;;;3.30;1.60;;;14.00;39.80;;;;;;5011339;28;20436;-73
2023/01/02 10:46:08;;;;;;;3.20;1.50;;;14.70;38.50;;;;;;5016438;28;20433;-73
2023/01/02 10:48:37;;;;;;;3.20;1.40;;;14.90;36.90;;;;;;5012330;28;20412;-73
2023/01/02 10:51:08;;;;;;;3.40;1.50;;;15.30;36.60;;;;;;5012168;28;20567;-73
2023/01/02 10:53:38;;;;;;;3.10;1.30;;;15.50;36.00;;;;;;5011567;28;20448;-73
2023/01/02 10:56:24;;;;;;;3.40;1.40;;;15.70;35.50;;;;;;5011700;28;20421;-73
2023/01/02 10:58:51;;;;;;;6.37;3.00;;;15.80;35.50;;;;;;5014771;28;20426;-73
2023/01/02 11:01:19;;;;;;;3.10;1.30;;;15.80;36.20;;;;;;5021035;28;20806;-73
2023/01/02 11:04:11;;;;;;;3.97;1.83;;;16.00;35.60;;;;;;5020926;28;20414;-73
2023/01/02 11:06:53;;;;;;;3.70;1.73;;;16.10;33.50;;;;;;5019472;28;20419;-73
2023/01/02 11:09:31;;;;;;;3.13;1.40;;;16.50;34.30;;;;;;5019632;28;20431;-74
2023/01/02 11:12:09;;;;;;;4.13;2.03;;;16.40;33.90;;;;;;5018039;28;20471;-73
2023/01/02 11:14:36;;;;;;;3.83;1.43;;;16.50;32.30;;;;;;5017673;28;20908;-73
2023/01/02 11:17:13;;;;;;;3.40;1.60;;;16.40;32.90;;;;;;5024684;28;20935;-74
2023/01/02 11:19:51;;;;;;;3.10;1.30;;;16.50;33.00;;;;;;5022730;28;20448;-73
2023/01/02 11:22:19;;;;;;;3.13;1.37;;;16.80;26.00;;;;;;5031388;28;20502;-74
2023/01/02 11:24:48;;;;;;;3.30;1.40;;;17.00;26.00;;;;;;5031505;28;20902;-74
2023/01/02 11:27:14;;;;;;;3.13;1.30;;;17.10;24.30;;;;;;5015185;28;20468;-74
2023/01/02 11:29:46;;;;;;;3.10;1.20;;;16.90;24.50;;;;;;5011460;28;20480;-74
2023/01/02 11:32:22;;;;;;;3.20;1.27;;;17.40;25.80;;;;;;5011364;28;20202;-73
2023/01/02 11:35:01;;;;;;;3.43;1.30;;;17.70;25.20;;;;;;5011866;28;20822;-74
2023/01/02 11:37:27;;;;;;;3.37;1.20;;;17.80;23.00;;;;;;5009873;28;20547;-74
2023/01/02 11:40:02;;;;;;;3.70;1.40;;;17.90;23.90;;;;;;5017296;28;20998;-74
2023/01/02 11:45:29;;;;;;;3.83;1.40;;;18.60;21.70;;;;;;5017027;28;20959;-74
2023/01/02 11:47:59;;;;;;;3.80;1.30;;;18.90;22.10;;;;;;5014342;28;20421;-73
2023/01/02 11:50:34;;;;;;;3.97;1.33;;;18.90;21.50;;;;;;5017844;28;20443;-77
2023/01/02 11:53:11;;;;;;;3.87;1.30;;;19.10;21.40;;;;;;5017388;28;20457;-72
2023/01/02 11:55:57;;;;;;;3.80;1.20;;;18.90;21.60;;;;;;5010420;28;20437;-71
2023/01/02 11:58:30;;;;;;;3.80;1.30;;;18.60;22.30;;;;;;5018192;28;20424;-75
2023/01/02 12:01:22;;;;;;;3.80;1.20;;;18.50;21.50;;;;;;5016634;28;20497;-72
2023/01/02 12:03:48;;;;;;;8.77;2.70;;;17.80;22.50;;;;;;5015867;28;20818;-73
2023/01/02 12:06:24;;;;;;;4.00;1.30;;;17.70;22.70;;;;;;5017875;28;20534;-72
2023/01/02 12:09:18;;;;;;;3.80;1.27;;;17.70;23.10;;;;;;5018013;28;20168;-72
2023/01/02 12:12:01;;;;;;;3.90;1.40;;;18.40;21.80;;;;;;5008339;28;20427;-72
2023/01/02 12:14:38;;;;;;;4.10;1.50;;;18.10;22.40;;;;;;5016683;28;20426;-71
2023/01/02 12:17:24;;;;;;;3.77;1.20;;;18.60;21.60;;;;;;5018114;28;20410;-72
2023/01/02 12:20:11;;;;;;;3.90;1.30;;;18.70;21.50;;;;;;5018430;28;20476;-75
2023/01/02 12:23:22;;;;;;;4.00;1.20;;;18.80;21.50;;;;;;5018432;28;20408;-72
2023/01/02 12:25:54;;;;;;;4.37;1.30;;;19.90;20.60;;;;;;4977503;28;20474;-75
2023/01/02 12:28:31;;;;;;;4.40;1.50;;;20.80;19.80;;;;;;4995765;28;20446;-75
2023/01/02 12:31:17;;;;;;;4.43;1.60;;;21.20;18.70;;;;;;4980205;28;20434;-72
2023/01/02 12:33:57;;;;;;;4.10;1.37;;;21.10;18.60;;;;;;4979421;28;20466;-72
2023/01/02 12:36:41;;;;;;;4.53;1.70;;;19.60;19.70;;;;;;4993885;28;20442;-72
2023/01/02 12:39:58;;;;;;;4.00;1.30;;;19.30;20.80;;;;;;4995707;28;20417;-72
2023/01/02 12:42:48;;;;;;;3.50;1.30;;;20.10;19.30;;;;;;4937442;29;20972;-72
2023/01/02 12:45:49;;;;;;;4.07;1.60;;;20.40;19.50;;;;;;4937294;29;20422;-72
2023/01/02 12:48:47;;;;;;;3.70;1.30;;;20.00;19.50;;;;;;4932804;29;20445;-73
2023/01/02 12:51:38;;;;;;;3.50;1.30;;;20.60;19.10;;;;;;4914714;29;20850;-73
2023/01/02 12:54:32;;;;;;;3.63;1.43;;;21.20;18.50;;;;;;4915247;29;20545;-77
2023/01/02 12:56:57;;;;;;;3.93;1.70;;;20.90;18.20;;;;;;4932774;29;20947;-72
2023/01/02 13:00:02;;;;;;;9.50;1.73;;;20.10;18.90;;;;;;4926259;29;20435;-72
2023/01/02 13:02:46;;;;;;;3.70;1.53;;;20.80;18.70;;;;;;4940921;29;20181;-72
2023/01/02 13:05:18;;;;;;;3.20;1.30;;;21.00;18.10;;;;;;4953270;29;20486;-72
2023/01/02 13:07:52;;;;;;;3.87;1.40;;;20.50;18.90;;;;;;4952566;28;20925;-72
2023/01/02 13:10:20;;;;;;;3.63;1.30;;;20.10;19.30;;;;;;4953158;29;20941;-72
2023/01/02 13:12:47;;;;;;;5.63;1.60;;;19.90;19.50;;;;;;4952857;29;20496;-72
2023/01/02 13:15:21;;;;;;;3.97;1.57;;;19.80;19.50;;;;;;4951580;29;20425;-73
2023/01/02 13:17:49;;;;;;;3.23;1.30;;;18.80;20.60;;;;;;4974209;28;20418;-76